Time;durP1;ratioP1;P1;durP2;ratioP2;P2;SDS_P1;SDS_P2;PMS_P1;PMS_P2;Temp;Humidity;BMP_temperature;BMP_pressure;BME280_temperature;BME280_humidity;BME280_pressure;Samples;Min_cycle;Max_cycle;Signal;HPM_P1;HPM_P2
2023/05/21 00:00:28;;;;;;;8.05;4.53;;;14.40;99.90;;;;;;4953989;29;20550;-83
2023/05/21 00:02:54;;;;;;;9.15;4.97;;;14.40;99.90;;;;;;4906341;29;20039;-83
2023/05/21 00:05:23;;;;;;;8.52;5.25;;;14.40;99.90;;;;;;4923475;29;20513;-83
2023/05/21 00:07:52;;;;;;;6.95;4.55;;;14.30;99.90;;;;;;4910462;29;20081;-83
2023/05/21 00:10:18;;;;;;;7.25;4.63;;;14.30;99.90;;;;;;4926517;29;20521;-82
2023/05/21 00:12:44;;;;;;;9.73;4.95;;;14.30;99.90;;;;;;4925791;29;20110;-83
2023/05/21 00:15:12;;;;;;;8.68;5.03;;;14.30;99.90;;;;;;4925943;29;20134;-83
2023/05/21 00:17:38;;;;;;;8.95;5.68;;;14.30;99.90;;;;;;4910477;29;20121;-82
2023/05/21 00:20:06;;;;;;;8.13;5.38;;;14.20;99.90;;;;;;4909660;29;20079;-82
2023/05/21 00:22:35;;;;;;;7.55;4.63;;;14.20;99.90;;;;;;4909815;29;20138;-82
2023/05/21 00:25:04;;;;;;;9.65;5.30;;;14.20;99.90;;;;;;4895995;29;20043;-83
2023/05/21 00:27:29;;;;;;;9.10;5.03;;;14.30;99.90;;;;;;4925774;29;20491;-82
2023/05/21 00:29:55;;;;;;;9.90;4.72;;;14.30;99.90;;;;;;4909618;29;20051;-83
2023/05/21 00:32:21;;;;;;;8.05;5.35;;;14.20;99.90;;;;;;4925388;29;20045;-83
2023/05/21 00:34:48;;;;;;;9.32;5.40;;;14.00;99.90;;;;;;4910006;29;20099;-82
2023/05/21 00:37:17;;;;;;;8.57;5.13;;;14.20;99.90;;;;;;4941257;29;20043;-82
2023/05/21 00:39:43;;;;;;;7.95;4.85;;;14.20;99.90;;;;;;4925111;29;20515;-82
2023/05/21 00:42:11;;;;;;;9.13;5.55;;;14.20;99.90;;;;;;4925270;29;20122;-82
2023/05/21 00:44:37;;;;;;;10.00;5.13;;;14.20;99.90;;;;;;4925588;29;20058;-82
2023/05/21 00:47:05;;;;;;;8.52;5.00;;;14.20;99.90;;;;;;4925509;29;20047;-82
2023/05/21 00:49:31;;;;;;;9.63;5.32;;;14.10;99.90;;;;;;4910405;29;20458;-82
2023/05/21 00:52:00;;;;;;;9.48;5.20;;;14.30;99.90;;;;;;4909650;29;20067;-82
2023/05/21 00:54:30;;;;;;;8.85;5.50;;;14.10;99.90;;;;;;4925202;29;20051;-82
2023/05/21 00:56:57;;;;;;;8.73;5.20;;;14.00;99.90;;;;;;4894666;29;20047;-82
2023/05/21 00:59:23;;;;;;;8.27;5.30;;;14.00;99.90;;;;;;4941254;29;20043;-82
2023/05/21 01:01:54;;;;;;;9.15;5.40;;;14.00;99.90;;;;;;4894196;29;20586;-82
2023/05/21 01:04:26;;;;;;;11.90;5.10;;;13.90;99.90;;;;;;4927859;29;20126;-82
2023/05/21 01:06:52;;;;;;;8.00;5.30;;;13.90;99.90;;;;;;4925068;29;20570;-82
2023/05/21 01:09:18;;;;;;;11.38;5.50;;;13.90;99.90;;;;;;4909371;29;20035;-82
2023/05/21 01:11:48;;;;;;;9.30;5.30;;;13.70;99.90;;;;;;4909567;29;20043;-82
2023/05/21 01:14:15;;;;;;;9.10;5.18;;;13.90;99.90;;;;;;4924531;29;20076;-82
2023/05/21 01:16:48;;;;;;;8.25;5.32;;;13.90;99.90;;;;;;4909334;29;20561;-82
2023/05/21 01:19:22;;;;;;;8.50;5.13;;;13.90;99.90;;;;;;4956878;29;20514;-82
2023/05/21 01:21:55;;;;;;;10.13;5.35;;;13.90;99.90;;;;;;4924860;29;20043;-82
2023/05/21 01:24:22;;;;;;;9.60;5.22;;;13.90;99.90;;;;;;4940403;29;20051;-82
2023/05/21 01:26:48;;;;;;;8.70;5.10;;;13.90;99.90;;;;;;4893311;29;20062;-82
2023/05/21 01:29:14;;;;;;;8.68;5.28;;;13.90;99.90;;;;;;4908711;29;20051;-82
2023/05/21 01:32:08;;;;;;;8.75;5.07;;;13.90;99.90;;;;;;4956481;29;20047;-82
2023/05/21 01:34:46;;;;;;;9.23;5.28;;;13.90;99.90;;;;;;4940293;29;20122;-82
2023/05/21 01:37:35;;;;;;;10.38;5.50;;;13.90;99.90;;;;;;4956156;29;20039;-83
2023/05/21 01:40:16;;;;;;;8.57;5.25;;;13.90;99.90;;;;;;4940798;29;20577;-83
2023/05/21 01:42:44;;;;;;;7.95;5.20;;;13.90;99.90;;;;;;4924295;29;20078;-82
2023/05/21 01:45:13;;;;;;;8.00;5.00;;;13.90;99.90;;;;;;4955822;29;20043;-82
2023/05/21 01:47:40;;;;;;;9.23;5.55;;;13.90;99.90;;;;;;4909496;29;20049;-82
2023/05/21 01:50:08;;;;;;;8.95;5.45;;;13.90;99.90;;;;;;4956234;29;20102;-82
2023/05/21 01:52:35;;;;;;;10.85;5.38;;;13.90;99.90;;;;;;4940413;29;20507;-82
2023/05/21 01:55:01;;;;;;;9.88;5.28;;;13.90;99.90;;;;;;4956923;29;20039;-82
2023/05/21 01:57:28;;;;;;;9.02;5.25;;;14.00;99.90;;;;;;4942042;29;20392;-82
2023/05/21 01:59:56;;;;;;;9.93;5.47;;;13.90;99.90;;;;;;4909083;29;20411;-82
2023/05/21 02:02:25;;;;;;;9.00;5.28;;;13.90;99.90;;;;;;4924123;29;20042;-83
2023/05/21 02:04:51;;;;;;;8.82;5.32;;;13.80;99.90;;;;;;4940399;29;20039;-83
2023/05/21 02:07:17;;;;;;;8.57;5.40;;;13.80;99.90;;;;;;4923966;29;20406;-82
2023/05/21 02:09:44;;;;;;;8.30;5.43;;;13.60;99.90;;;;;;4908771;29;20487;-83
2023/05/21 02:12:11;;;;;;;9.27;5.43;;;13.80;99.90;;;;;;4908432;29;20099;-83
2023/05/21 02:14:37;;;;;;;10.70;5.93;;;13.80;99.90;;;;;;4908290;29;20039;-83
2023/05/21 02:17:03;;;;;;;9.52;5.85;;;13.80;99.90;;;;;;4893248;29;20479;-83
2023/05/21 02:19:29;;;;;;;8.85;5.43;;;13.70;99.90;;;;;;4955705;29;20495;-83
2023/05/21 02:21:55;;;;;;;9.75;5.78;;;13.80;99.90;;;;;;4892587;29;20039;-83
2023/05/21 02:24:23;;;;;;;11.25;6.25;;;13.80;99.90;;;;;;4923897;29;20043;-83
2023/05/21 02:26:49;;;;;;;10.50;6.40;;;13.70;99.90;;;;;;4908349;29;20468;-83
2023/05/21 02:29:18;;;;;;;11.88;6.68;;;13.80;99.90;;;;;;4892025;29;20049;-83
2023/05/21 02:31:44;;;;;;;11.52;6.00;;;13.70;99.90;;;;;;4892683;29;20130;-83
2023/05/21 02:34:11;;;;;;;9.25;5.90;;;13.70;99.90;;;;;;4892268;29;20098;-83
2023/05/21 02:36:37;;;;;;;10.98;5.78;;;13.70;99.90;;;;;;4923193;29;20094;-82
2023/05/21 02:39:03;;;;;;;10.18;5.60;;;13.70;99.90;;;;;;4907577;29;20079;-82
2023/05/21 02:41:28;;;;;;;10.13;6.25;;;13.70;99.90;;;;;;4907828;29;20035;-83
2023/05/21 02:43:54;;;;;;;10.38;6.68;;;13.70;99.90;;;;;;4922831;29;20054;-82
2023/05/21 02:46:20;;;;;;;12.40;6.75;;;13.70;99.90;;;;;;4954564;29;20122;-82
2023/05/21 02:48:46;;;;;;;9.75;6.10;;;13.70;99.90;;;;;;4891487;29;20478;-83
2023/05/21 02:51:12;;;;;;;10.73;6.65;;;13.70;99.90;;;;;;4906906;29;20102;-82
2023/05/21 02:53:38;;;;;;;10.85;7.10;;;13.70;99.90;;;;;;4891497;29;20047;-82
2023/05/21 02:56:04;;;;;;;9.82;7.00;;;13.70;99.90;;;;;;4906853;29;20050;-82
2023/05/21 02:58:32;;;;;;;12.18;6.85;;;13.30;99.90;;;;;;4922667;29;20047;-82
2023/05/21 03:00:57;;;;;;;11.60;7.43;;;13.60;99.90;;;;;;4907017;29;20035;-82
2023/05/21 03:03:26;;;;;;;12.35;7.60;;;13.60;99.90;;;;;;4922721;29;20035;-82
2023/05/21 03:05:55;;;;;;;11.93;6.82;;;13.60;99.90;;;;;;4923227;29;20509;-82
2023/05/21 03:08:21;;;;;;;14.32;7.50;;;13.50;99.90;;;;;;4923120;29;20589;-82
2023/05/21 03:10:47;;;;;;;11.65;6.93;;;13.50;99.90;;;;;;4906647;29;20159;-82
2023/05/21 03:13:14;;;;;;;10.98;7.18;;;13.50;99.90;;;;;;4922512;29;20130;-82
2023/05/21 03:15:42;;;;;;;10.82;6.88;;;13.50;99.90;;;;;;4938511;29;20387;-82
2023/05/21 03:18:09;;;;;;;12.18;7.07;;;13.50;99.90;;;;;;4922581;29;20047;-82
2023/05/21 03:20:36;;;;;;;11.88;6.85;;;13.50;99.90;;;;;;4922546;29;20043;-82
2023/05/21 03:23:05;;;;;;;12.57;7.10;;;13.50;99.90;;;;;;4907412;29;20137;-82
2023/05/21 03:25:30;;;;;;;12.60;7.93;;;13.40;99.90;;;;;;4906675;29;20197;-83
2023/05/21 03:27:56;;;;;;;13.73;7.90;;;13.40;99.90;;;;;;4922306;29;20144;-82
2023/05/21 03:30:22;;;;;;;12.52;7.85;;;13.40;99.90;;;;;;4953858;29;20093;-82
2023/05/21 03:32:48;;;;;;;11.25;7.28;;;13.40;99.90;;;;;;4906401;29;20046;-81
2023/05/21 03:35:14;;;;;;;12.55;7.97;;;13.40;99.90;;;;;;4906291;29;20043;-82
2023/05/21 03:37:40;;;;;;;12.07;7.57;;;13.30;99.90;;;;;;4953684;29;20098;-82
2023/05/21 03:40:07;;;;;;;11.50;7.68;;;13.30;99.90;;;;;;4924381;29;20051;-82
2023/05/21 03:42:33;;;;;;;12.70;7.90;;;13.30;99.90;;;;;;4937992;29;20502;-81
2023/05/21 03:45:06;;;;;;;11.80;7.65;;;13.20;99.90;;;;;;4938034;29;20043;-82
2023/05/21 03:47:32;;;;;;;13.07;7.60;;;13.20;99.90;;;;;;4922111;29;20046;-82
2023/05/21 03:49:57;;;;;;;12.45;7.90;;;13.30;99.90;;;;;;4921853;29;20039;-81
2023/05/21 03:52:26;;;;;;;12.80;7.93;;;13.10;99.90;;;;;;4922306;29;20066;-81
2023/05/21 03:54:52;;;;;;;11.30;7.45;;;13.30;99.90;;;;;;4921978;29;20035;-82
2023/05/21 03:57:21;;;;;;;10.77;7.60;;;13.30;99.90;;;;;;4905956;29;20082;-81
2023/05/21 03:59:46;;;;;;;11.15;7.50;;;13.30;99.90;;;;;;4906683;29;20047;-82
2023/05/21 04:02:12;;;;;;;11.00;7.40;;;13.20;99.90;;;;;;4921984;29;20475;-82
2023/05/21 04:04:42;;;;;;;10.95;7.30;;;13.30;99.90;;;;;;4921838;29;20550;-82
2023/05/21 04:07:13;;;;;;;11.13;7.72;;;13.20;99.90;;;;;;4891346;29;20589;-82
2023/05/21 04:09:42;;;;;;;10.45;6.72;;;13.30;99.90;;;;;;4907092;29;20087;-82
2023/05/21 04:12:07;;;;;;;13.38;7.75;;;13.20;99.90;;;;;;4922042;29;20396;-82
2023/05/21 04:14:36;;;;;;;9.98;6.90;;;13.30;99.90;;;;;;4953589;29;20160;-82
2023/05/21 04:17:04;;;;;;;13.32;7.18;;;13.30;99.90;;;;;;4891067;29;20089;-82
2023/05/21 04:19:33;;;;;;;10.98;7.32;;;13.20;99.90;;;;;;4907858;29;20047;-82
2023/05/21 04:22:05;;;;;;;13.50;7.53;;;13.20;99.90;;;;;;4892834;29;20043;-82
2023/05/21 04:24:31;;;;;;;11.57;6.95;;;13.20;99.90;;;;;;4922121;29;20553;-82
2023/05/21 04:27:00;;;;;;;10.80;7.10;;;13.20;99.90;;;;;;4906376;29;20514;-82
2023/05/21 04:29:28;;;;;;;10.85;7.20;;;13.10;99.90;;;;;;4922115;29;20126;-82
2023/05/21 04:31:55;;;;;;;10.75;6.72;;;13.10;99.90;;;;;;4906719;29;20528;-82
2023/05/21 04:34:20;;;;;;;12.23;6.63;;;13.10;99.90;;;;;;4921018;29;20054;-82
2023/05/21 04:36:47;;;;;;;12.00;7.00;;;13.10;99.90;;;;;;4906603;29;20044;-82
2023/05/21 04:39:13;;;;;;;11.98;7.15;;;13.10;99.90;;;;;;4938565;29;20039;-82
2023/05/21 04:41:43;;;;;;;11.02;6.75;;;13.10;99.90;;;;;;4938951;29;20498;-83
2023/05/21 04:44:09;;;;;;;13.20;6.18;;;13.20;99.90;;;;;;4923293;29;20054;-82
2023/05/21 04:46:39;;;;;;;14.68;6.97;;;13.10;99.90;;;;;;4923145;29;20518;-82
2023/05/21 04:49:07;;;;;;;10.65;6.47;;;13.10;99.90;;;;;;4891491;29;20490;-82
2023/05/21 04:51:36;;;;;;;11.82;6.30;;;13.10;99.90;;;;;;4923905;29;20058;-82
2023/05/21 04:54:02;;;;;;;13.05;6.78;;;12.80;99.90;;;;;;4926084;29;20495;-82
2023/05/21 04:56:30;;;;;;;11.52;6.70;;;13.20;99.90;;;;;;4958084;29;20487;-82
2023/05/21 04:58:59;;;;;;;10.30;6.30;;;13.10;99.90;;;;;;4942735;29;20039;-82
2023/05/21 05:01:28;;;;;;;11.02;6.25;;;13.10;99.90;;;;;;4957856;29;20122;-82
2023/05/21 05:03:55;;;;;;;10.93;6.20;;;13.20;99.90;;;;;;4959215;29;20118;-82
2023/05/21 05:06:21;;;;;;;11.10;6.50;;;12.90;99.90;;;;;;4925929;29;20039;-82
2023/05/21 05:08:48;;;;;;;12.05;6.60;;;13.20;99.90;;;;;;4925918;29;20127;-82
2023/05/21 05:11:14;;;;;;;12.50;6.60;;;13.20;99.90;;;;;;4910880;29;20562;-82
2023/05/21 05:13:43;;;;;;;9.82;6.57;;;13.20;99.90;;;;;;4910481;29;20039;-82
2023/05/21 05:16:09;;;;;;;11.88;6.43;;;13.20;99.90;;;;;;4941208;29;20130;-82
2023/05/21 05:18:35;;;;;;;11.48;6.10;;;13.30;99.90;;;;;;4910309;29;20490;-82
2023/05/21 05:21:01;;;;;;;12.27;6.53;;;13.20;99.90;;;;;;4925647;29;20036;-82
2023/05/21 05:23:27;;;;;;;9.68;5.72;;;13.30;99.90;;;;;;4957070;29;20043;-82
2023/05/21 05:25:53;;;;;;;11.68;6.55;;;13.30;99.90;;;;;;4924900;29;20050;-82
2023/05/21 05:28:19;;;;;;;10.32;6.22;;;13.30;99.90;;;;;;4956616;29;20051;-82
2023/05/21 05:30:44;;;;;;;10.90;6.07;;;13.40;99.90;;;;;;4924683;29;20047;-83
2023/05/21 05:33:10;;;;;;;9.90;6.20;;;13.40;99.90;;;;;;4940357;29;20042;-83
2023/05/21 05:35:37;;;;;;;11.73;6.45;;;13.40;99.90;;;;;;4908905;29;20410;-83
2023/05/21 05:38:04;;;;;;;10.48;6.10;;;13.40;99.90;;;;;;4908676;29;20164;-83
2023/05/21 05:40:30;;;;;;;10.90;6.30;;;13.50;99.90;;;;;;4909726;29;20483;-82
2023/05/21 05:42:58;;;;;;;10.98;6.13;;;13.50;99.90;;;;;;4925077;29;20046;-82
2023/05/21 05:45:25;;;;;;;10.65;6.13;;;13.50;99.90;;;;;;4894017;29;20090;-83
2023/05/21 05:47:54;;;;;;;13.10;6.28;;;13.50;99.90;;;;;;4958268;29;20047;-83
2023/05/21 05:50:20;;;;;;;11.20;6.40;;;13.50;99.90;;;;;;4940929;29;20094;-83
2023/05/21 05:52:45;;;;;;;12.15;6.30;;;13.50;99.90;;;;;;4909324;29;20524;-83
2023/05/21 05:55:11;;;;;;;11.75;6.00;;;13.50;99.90;;;;;;4893440;29;20074;-83
2023/05/21 05:57:41;;;;;;;11.45;6.00;;;13.50;99.90;;;;;;4909859;29;20047;-83
2023/05/21 06:00:14;;;;;;;9.98;5.88;;;13.60;99.90;;;;;;4941210;29;20062;-83
2023/05/21 06:02:40;;;;;;;10.32;6.03;;;13.60;99.90;;;;;;4907580;29;20126;-83
2023/05/21 06:05:08;;;;;;;10.77;6.30;;;13.70;99.90;;;;;;4908644;29;20078;-82
2023/05/21 06:07:37;;;;;;;10.88;5.88;;;13.70;99.90;;;;;;4940559;29;20406;-83
2023/05/21 06:10:06;;;;;;;10.13;5.50;;;13.70;99.90;;;;;;4940703;29;20047;-83
2023/05/21 06:12:33;;;;;;;11.30;5.53;;;13.80;99.90;;;;;;4940621;29;20398;-83
2023/05/21 06:15:00;;;;;;;9.98;5.30;;;13.90;99.90;;;;;;4939679;29;20035;-83
2023/05/21 06:17:26;;;;;;;11.50;5.70;;;14.00;99.90;;;;;;4908747;29;20133;-83
2023/05/21 06:19:52;;;;;;;11.85;5.72;;;14.00;99.90;;;;;;4939545;29;20502;-83
2023/05/21 06:22:17;;;;;;;10.52;5.38;;;14.10;99.90;;;;;;4907775;29;20042;-83
2023/05/21 06:24:43;;;;;;;10.80;5.47;;;14.10;99.90;;;;;;4908145;29;20069;-83
2023/05/21 06:27:10;;;;;;;9.63;5.00;;;14.20;99.90;;;;;;4939762;29;20046;-83
2023/05/21 06:29:36;;;;;;;10.68;5.13;;;14.20;99.90;;;;;;4908262;29;20098;-83
2023/05/21 06:32:02;;;;;;;9.48;5.00;;;14.30;99.90;;;;;;4939227;29;20042;-84
2023/05/21 06:34:28;;;;;;;9.95;5.47;;;14.50;99.90;;;;;;4938693;29;20047;-84
2023/05/21 06:36:55;;;;;;;10.45;5.47;;;14.70;99.90;;;;;;4939555;29;20410;-82
2023/05/21 06:39:21;;;;;;;9.63;4.97;;;14.90;99.90;;;;;;4910497;29;20039;-82
2023/05/21 06:41:46;;;;;;;12.20;5.30;;;14.90;99.90;;;;;;4959917;29;20043;-81
2023/05/21 06:44:14;;;;;;;11.40;5.20;;;15.00;99.90;;;;;;4943493;29;20473;-82
2023/05/21 06:46:40;;;;;;;10.80;5.00;;;15.00;99.90;;;;;;4942928;29;20077;-82
2023/05/21 06:49:06;;;;;;;9.13;5.00;;;15.00;99.90;;;;;;4960024;29;20043;-82
2023/05/21 06:51:32;;;;;;;9.90;5.00;;;15.10;99.90;;;;;;4915271;29;20110;-82
2023/05/21 06:53:58;;;;;;;9.82;4.85;;;15.10;99.90;;;;;;4913018;29;20045;-82
2023/05/21 06:56:25;;;;;;;10.77;4.78;;;15.10;99.90;;;;;;4926310;29;20137;-83
2023/05/21 06:58:51;;;;;;;9.85;4.90;;;15.20;99.90;;;;;;4928934;29;20047;-82
2023/05/21 07:01:17;;;;;;;9.32;5.03;;;15.10;99.90;;;;;;4912816;29;20094;-82
2023/05/21 07:03:42;;;;;;;9.38;5.20;;;15.30;99.90;;;;;;4962006;29;20065;-82
2023/05/21 07:06:08;;;;;;;10.73;5.18;;;15.00;99.90;;;;;;4929380;29;20115;-82
2023/05/21 07:08:37;;;;;;;10.18;5.18;;;15.20;99.90;;;;;;4913130;29;20047;-82
2023/05/21 07:11:03;;;;;;;12.15;5.20;;;15.20;99.90;;;;;;4943816;29;20127;-82
2023/05/21 07:13:29;;;;;;;10.20;5.10;;;15.20;99.90;;;;;;4942916;28;20137;-81
2023/05/21 07:15:57;;;;;;;10.75;5.10;;;15.20;99.90;;;;;;4927607;29;20050;-82
2023/05/21 07:18:23;;;;;;;9.68;5.10;;;15.30;99.90;;;;;;4927875;29;20039;-82
2023/05/21 07:20:49;;;;;;;10.52;5.22;;;15.30;99.90;;;;;;4910467;29;20035;-82
2023/05/21 07:23:15;;;;;;;10.27;5.30;;;15.40;99.90;;;;;;4909574;29;20043;-82
2023/05/21 07:25:41;;;;;;;10.82;5.18;;;15.40;99.90;;;;;;4895410;29;20074;-82
2023/05/21 07:28:07;;;;;;;10.02;5.07;;;15.40;99.90;;;;;;4892338;29;20050;-82
2023/05/21 07:30:32;;;;;;;12.50;5.75;;;15.50;99.90;;;;;;4938332;29;20046;-82
2023/05/21 07:32:58;;;;;;;9.55;5.50;;;15.50;99.90;;;;;;4954680;29;20039;-82
2023/05/21 07:35:24;;;;;;;8.85;5.07;;;15.50;99.90;;;;;;4923495;29;20043;-82
2023/05/21 07:37:50;;;;;;;8.80;5.18;;;15.60;99.90;;;;;;4955094;29;20110;-82
2023/05/21 07:40:16;;;;;;;10.07;5.60;;;15.70;99.90;;;;;;4906883;29;20501;-82
2023/05/21 07:42:42;;;;;;;9.98;5.45;;;15.60;99.90;;;;;;4922501;29;20101;-82
2023/05/21 07:45:08;;;;;;;9.68;5.35;;;15.70;99.90;;;;;;4906415;29;20513;-82
2023/05/21 07:47:33;;;;;;;8.00;5.00;;;15.80;99.90;;;;;;4954000;29;20049;-82
2023/05/21 07:49:59;;;;;;;10.27;5.15;;;15.90;99.90;;;;;;4922475;29;20047;-82
2023/05/21 07:52:25;;;;;;;9.88;5.10;;;15.90;99.90;;;;;;4921964;29;20102;-82
2023/05/21 07:54:51;;;;;;;9.27;5.30;;;15.90;99.90;;;;;;4922494;29;20062;-82
2023/05/21 07:57:18;;;;;;;10.23;5.30;;;15.90;99.90;;;;;;4923793;29;20082;-82
2023/05/21 07:59:44;;;;;;;8.63;5.15;;;16.00;99.90;;;;;;4976133;29;20023;-82
2023/05/21 08:02:09;;;;;;;12.23;5.30;;;16.30;99.90;;;;;;4929296;29;20035;-82
2023/05/21 08:04:35;;;;;;;10.07;5.60;;;16.20;99.90;;;;;;4945777;28;20047;-81
2023/05/21 08:07:01;;;;;;;9.68;5.72;;;16.00;99.90;;;;;;4929335;29;20066;-82
2023/05/21 08:09:27;;;;;;;8.75;5.60;;;16.40;99.90;;;;;;4944028;29;20059;-82
2023/05/21 08:11:53;;;;;;;12.50;5.40;;;16.40;99.90;;;;;;4976379;29;20638;-82
2023/05/21 08:14:22;;;;;;;8.13;5.30;;;16.30;99.90;;;;;;4939983;29;20039;-82
2023/05/21 08:16:48;;;;;;;10.45;5.50;;;16.40;99.90;;;;;;4954002;29;20046;-83
2023/05/21 08:19:13;;;;;;;9.50;5.10;;;16.30;99.90;;;;;;4921766;29;20043;-83
2023/05/21 08:21:39;;;;;;;10.40;5.40;;;16.30;99.90;;;;;;4953523;29;20590;-82
2023/05/21 08:24:06;;;;;;;10.00;5.38;;;16.40;99.90;;;;;;4922002;29;20046;-82
2023/05/21 08:26:35;;;;;;;9.18;5.55;;;16.40;99.90;;;;;;4956003;28;20130;-82
2023/05/21 08:29:01;;;;;;;7.95;5.07;;;16.40;99.90;;;;;;4925584;29;20487;-82
2023/05/21 08:31:29;;;;;;;10.18;5.75;;;16.50;99.90;;;;;;4957403;29;20046;-82
2023/05/21 08:33:55;;;;;;;9.43;5.50;;;16.60;99.90;;;;;;4925366;29;20051;-82
2023/05/21 08:36:21;;;;;;;10.02;5.30;;;16.60;99.90;;;;;;4957053;29;20495;-82
2023/05/21 08:38:47;;;;;;;10.23;5.30;;;16.50;99.90;;;;;;4925214;29;20122;-82
2023/05/21 08:41:15;;;;;;;9.68;5.13;;;16.60;99.90;;;;;;4957233;29;20043;-82
2023/05/21 08:43:42;;;;;;;9.65;5.57;;;16.80;99.90;;;;;;4909830;29;20101;-83
2023/05/21 08:46:08;;;;;;;8.85;5.28;;;16.90;99.90;;;;;;4956785;29;20051;-82
2023/05/21 08:48:36;;;;;;;9.65;5.13;;;17.20;99.90;;;;;;4957130;29;20058;-82
2023/05/21 08:51:02;;;;;;;10.45;5.50;;;17.40;99.90;;;;;;4924129;29;20507;-83
2023/05/21 08:53:28;;;;;;;9.10;5.32;;;17.70;99.90;;;;;;4909294;29;20050;-82
2023/05/21 08:55:55;;;;;;;11.43;5.20;;;17.90;99.90;;;;;;4940739;29;20495;-82
2023/05/21 08:58:21;;;;;;;11.10;5.85;;;18.10;99.90;;;;;;4909213;29;20039;-83
2023/05/21 09:00:47;;;;;;;9.20;5.53;;;18.10;99.90;;;;;;4940657;29;20133;-82
2023/05/21 09:03:14;;;;;;;9.68;5.70;;;18.30;99.90;;;;;;4956663;29;20039;-83
2023/05/21 09:05:41;;;;;;;9.15;5.72;;;18.30;99.90;;;;;;4940999;29;20565;-83
2023/05/21 09:08:16;;;;;;;10.88;5.60;;;18.30;99.90;;;;;;4940487;29;20051;-83
2023/05/21 09:10:49;;;;;;;9.88;5.80;;;18.60;99.90;;;;;;4925162;29;20137;-83
2023/05/21 09:13:19;;;;;;;11.13;5.93;;;18.60;99.90;;;;;;4926447;29;20447;-82
2023/05/21 09:15:46;;;;;;;10.45;6.30;;;18.90;99.90;;;;;;4927386;29;20047;-82
2023/05/21 09:18:12;;;;;;;8.80;5.65;;;19.00;99.90;;;;;;4927178;29;20460;-82
2023/05/21 09:20:48;;;;;;;9.60;5.60;;;19.30;99.90;;;;;;4927518;29;20049;-82
2023/05/21 09:23:16;;;;;;;10.52;5.90;;;19.30;99.90;;;;;;4926712;29;20051;-82
2023/05/21 09:25:51;;;;;;;10.38;6.35;;;19.40;99.90;;;;;;4927788;29;20098;-82
2023/05/21 09:28:18;;;;;;;9.93;6.20;;;19.50;99.90;;;;;;4928516;29;20051;-82
2023/05/21 09:30:52;;;;;;;9.93;6.43;;;19.40;99.90;;;;;;4925966;29;20051;-82
2023/05/21 09:33:30;;;;;;;11.48;6.60;;;19.20;99.90;;;;;;4894083;29;20042;-82
2023/05/21 09:35:56;;;;;;;10.38;6.18;;;19.70;99.90;;;;;;4925970;29;20039;-82
2023/05/21 09:38:23;;;;;;;9.75;6.43;;;19.60;99.90;;;;;;4942185;29;20043;-82
2023/05/21 09:40:55;;;;;;;9.70;6.40;;;19.80;99.90;;;;;;4957944;29;20049;-81
2023/05/21 09:43:24;;;;;;;13.50;7.63;;;19.60;99.90;;;;;;4941121;29;20051;-82
2023/05/21 09:45:54;;;;;;;13.07;7.32;;;19.40;99.90;;;;;;4924632;29;20495;-82
2023/05/21 09:48:40;;;;;;;10.82;7.50;;;19.20;99.90;;;;;;4924247;29;20047;-82
2023/05/21 09:51:17;;;;;;;10.75;7.20;;;19.20;99.90;;;;;;4920928;29;20094;-82
2023/05/21 09:53:58;;;;;;;11.68;8.10;;;19.30;99.90;;;;;;4940386;29;20098;-82
2023/05/21 09:56:29;;;;;;;11.60;8.60;;;19.00;99.90;;;;;;4939498;29;20107;-82
2023/05/21 09:59:00;;;;;;;13.15;7.50;;;19.00;99.90;;;;;;4940389;29;20290;-82
2023/05/21 10:01:27;;;;;;;11.80;8.23;;;19.10;99.90;;;;;;4939473;29;20039;-82
2023/05/21 10:03:55;;;;;;;11.07;7.88;;;19.00;99.90;;;;;;4939512;29;20098;-83
2023/05/21 10:06:25;;;;;;;10.90;7.45;;;19.00;99.90;;;;;;4908373;29;20039;-82
2023/05/21 10:08:55;;;;;;;12.63;7.72;;;19.20;99.90;;;;;;4921697;28;20039;-81
2023/05/21 10:11:26;;;;;;;11.68;7.82;;;19.20;99.90;;;;;;4951359;28;20066;-82
2023/05/21 10:14:00;;;;;;;12.52;8.43;;;19.20;99.90;;;;;;4923957;29;20054;-82
2023/05/21 10:16:27;;;;;;;11.65;7.45;;;19.30;99.90;;;;;;4939300;29;20043;-82
2023/05/21 10:18:54;;;;;;;12.45;8.20;;;19.50;99.90;;;;;;4908125;29;20446;-82
2023/05/21 10:21:22;;;;;;;13.10;8.55;;;19.70;99.90;;;;;;4923723;29;20509;-81
2023/05/21 10:23:52;;;;;;;12.40;8.82;;;19.90;99.90;;;;;;4939227;29;20050;-82
2023/05/21 10:26:22;;;;;;;12.32;8.88;;;20.00;99.90;;;;;;4923101;29;20055;-81
2023/05/21 10:28:51;;;;;;;13.00;9.40;;;20.30;99.90;;;;;;4939119;29;20046;-82
2023/05/21 10:31:21;;;;;;;12.95;9.05;;;20.30;99.90;;;;;;4907891;29;20050;-82
2023/05/21 10:33:52;;;;;;;14.05;9.68;;;20.20;99.90;;;;;;4939344;29;20051;-81
2023/05/21 10:36:19;;;;;;;13.82;9.30;;;19.90;99.90;;;;;;4954728;29;20035;-82
2023/05/21 10:38:46;;;;;;;13.82;9.75;;;20.10;99.90;;;;;;4923233;29;20042;-81
2023/05/21 10:41:16;;;;;;;13.52;10.20;;;20.20;99.90;;;;;;4923517;29;20047;-81
2023/05/21 10:44:25;;;;;;;13.77;10.23;;;20.40;99.90;;;;;;4924677;29;20047;-81
2023/05/21 10:47:00;;;;;;;13.20;10.30;;;20.30;99.90;;;;;;4923263;29;20050;-82
2023/05/21 10:49:50;;;;;;;14.48;10.38;;;20.30;99.90;;;;;;4922510;29;20050;-81
2023/05/21 10:52:22;;;;;;;13.60;9.90;;;20.30;99.90;;;;;;4954421;29;20059;-82
2023/05/21 10:54:57;;;;;;;;;;;20.40;99.90;;;;;;4923383;29;20047;-82
2023/05/21 10:57:54;;;;;;;14.07;10.90;;;20.60;99.90;;;;;;4954894;29;19918;-80
2023/05/21 11:00:23;;;;;;;14.93;9.73;;;20.80;99.90;;;;;;4923238;29;20043;-81
2023/05/21 11:02:51;;;;;;;14.07;10.60;;;20.90;99.90;;;;;;4955206;29;20081;-81
2023/05/21 11:05:49;;;;;;;14.77;11.52;;;21.30;99.90;;;;;;4923721;29;20561;-81
2023/05/21 11:08:21;;;;;;;14.60;12.18;;;21.20;99.90;;;;;;4924054;29;20046;-82
2023/05/21 11:10:56;;;;;;;15.98;11.88;;;20.90;99.90;;;;;;4960236;29;20043;-81
2023/05/21 11:13:24;;;;;;;;;;;21.20;99.90;;;;;;4979676;29;20034;-81
2023/05/21 11:16:06;;;;;;;14.40;11.88;;;21.50;99.90;;;;;;4963370;29;19949;-81
2023/05/21 11:18:38;;;;;;;17.33;12.77;;;21.60;99.90;;;;;;4947088;28;20047;-81
2023/05/21 11:21:16;;;;;;;18.42;13.68;;;21.40;99.90;;;;;;4963777;28;20030;-81
2023/05/21 11:24:01;;;;;;;18.10;12.95;;;21.00;99.90;;;;;;4962353;29;20051;-80
2023/05/21 11:26:51;;;;;;;18.92;13.32;;;21.10;99.90;;;;;;4979053;29;20027;-81
2023/05/21 11:29:18;;;;;;;17.15;13.68;;;21.20;99.90;;;;;;4961929;28;20031;-81
2023/05/21 11:31:45;;;;;;;16.90;13.57;;;21.20;99.90;;;;;;4978697;28;20051;-81
2023/05/21 11:34:20;;;;;;;17.75;13.95;;;21.30;99.90;;;;;;4973736;28;20147;-81
2023/05/21 11:36:47;;;;;;;17.65;12.73;;;21.30;99.90;;;;;;4958255;29;20487;-80
2023/05/21 11:39:21;;;;;;;15.10;13.10;;;21.60;99.90;;;;;;4955819;29;20043;-81
2023/05/21 11:41:56;;;;;;;16.38;12.38;;;21.90;99.90;;;;;;4955455;29;20505;-81
2023/05/21 11:44:44;;;;;;;18.85;14.68;;;21.70;99.90;;;;;;4923421;29;20099;-82
2023/05/21 11:47:12;;;;;;;17.27;14.07;;;21.90;99.90;;;;;;4923032;29;20042;-82
2023/05/21 11:49:38;;;;;;;18.65;14.52;;;21.80;99.90;;;;;;4939473;29;20039;-81
2023/05/21 11:52:07;;;;;;;16.70;13.80;;;21.80;99.90;;;;;;4923152;29;20047;-82
2023/05/21 11:54:44;;;;;;;17.17;14.25;;;22.10;99.90;;;;;;4938869;29;20062;-82
2023/05/21 11:57:17;;;;;;;18.05;14.35;;;22.00;99.90;;;;;;4908400;29;20047;-82
2023/05/21 11:59:44;;;;;;;17.75;13.63;;;22.10;99.90;;;;;;4908151;28;20040;-81
2023/05/21 12:02:17;;;;;;;17.83;14.63;;;21.90;99.90;;;;;;4910429;29;20047;-82
2023/05/21 12:04:47;;;;;;;16.45;14.23;;;22.30;99.90;;;;;;4943402;29;20051;-81
2023/05/21 12:07:18;;;;;;;18.83;15.20;;;22.50;99.90;;;;;;4928219;29;20053;-81
2023/05/21 12:09:48;;;;;;;20.45;15.18;;;22.50;99.90;;;;;;4959154;29;20043;-81
2023/05/21 12:12:15;;;;;;;19.00;14.35;;;22.60;99.90;;;;;;4912355;29;20626;-81
2023/05/21 12:14:51;;;;;;;18.02;14.60;;;22.50;99.90;;;;;;4926228;29;20039;-81
2023/05/21 12:17:22;;;;;;;17.33;14.65;;;22.50;99.90;;;;;;4926462;29;20043;-81
2023/05/21 12:19:49;;;;;;;;;;;22.60;99.90;;;;;;4959799;29;20051;-82
2023/05/21 12:22:20;;;;;;;19.10;15.35;;;22.80;99.90;;;;;;4959834;29;19959;-82
2023/05/21 12:24:49;;;;;;;16.80;14.57;;;22.60;99.90;;;;;;4958788;29;20047;-82
2023/05/21 12:27:20;;;;;;;21.17;15.52;;;22.70;99.90;;;;;;4925887;29;20039;-80
2023/05/21 12:29:50;;;;;;;20.40;17.17;;;22.90;99.90;;;;;;4927118;29;20380;-82
2023/05/21 12:32:18;;;;;;;21.75;16.23;;;22.80;99.90;;;;;;4926938;29;20127;-82
2023/05/21 12:34:53;;;;;;;20.90;16.83;;;22.80;99.90;;;;;;4925787;29;20039;-82
2023/05/21 12:37:22;;;;;;;20.35;16.98;;;23.00;99.90;;;;;;4894723;29;20110;-82
2023/05/21 12:39:51;;;;;;;19.23;16.58;;;23.00;99.90;;;;;;4941536;29;20110;-82
2023/05/21 12:42:39;;;;;;;20.95;16.45;;;23.20;99.90;;;;;;4957608;29;20031;-81
2023/05/21 12:45:09;;;;;;;19.65;16.30;;;23.30;99.70;;;;;;4922791;29;20039;-81
2023/05/21 12:47:38;;;;;;;20.25;16.15;;;23.40;99.90;;;;;;4925327;29;20047;-81